sensor_id;sensor_type;location;lat;lon;timestamp;P1;durP1;ratioP1;P2;durP2;ratioP2
46589;SDS011;32313;48.722;9.362;2022-10-26T00:00:36;11.07;;;8.50;;
46589;SDS011;32313;48.722;9.362;2022-10-26T00:03:01;11.07;;;8.60;;
46589;SDS011;32313;48.722;9.362;2022-10-26T00:05:27;9.23;;;8.03;;
46589;SDS011;32313;48.722;9.362;2022-10-26T00:07:53;9.97;;;8.63;;
46589;SDS011;32313;48.722;9.362;2022-10-26T00:10:18;10.00;;;7.77;;
46589;SDS011;32313;48.722;9.362;2022-10-26T00:12:47;12.43;;;8.13;;
46589;SDS011;32313;48.722;9.362;2022-10-26T00:15:14;11.07;;;8.03;;
46589;SDS011;32313;48.722;9.362;2022-10-26T00:17:40;9.57;;;8.00;;
46589;SDS011;32313;48.722;9.362;2022-10-26T00:20:06;10.50;;;8.63;;
46589;SDS011;32313;48.722;9.362;2022-10-26T00:22:32;10.23;;;8.37;;
46589;SDS011;32313;48.722;9.362;2022-10-26T00:24:58;11.53;;;7.90;;
46589;SDS011;32313;48.722;9.362;2022-10-26T00:27:23;11.63;;;8.50;;
46589;SDS011;32313;48.722;9.362;2022-10-26T00:29:49;11.03;;;7.73;;
46589;SDS011;32313;48.722;9.362;2022-10-26T00:32:14;8.43;;;7.67;;
46589;SDS011;32313;48.722;9.362;2022-10-26T00:34:40;9.87;;;8.00;;
46589;SDS011;32313;48.722;9.362;2022-10-26T00:37:06;14.43;;;8.47;;
46589;SDS011;32313;48.722;9.362;2022-10-26T00:39:31;9.20;;;7.80;;
46589;SDS011;32313;48.722;9.362;2022-10-26T00:41:57;11.17;;;8.53;;
46589;SDS011;32313;48.722;9.362;2022-10-26T00:47:10;10.97;;;8.67;;
46589;SDS011;32313;48.722;9.362;2022-10-26T00:49:47;11.83;;;8.50;;
46589;SDS011;32313;48.722;9.362;2022-10-26T00:52:16;14.60;;;8.37;;
46589;SDS011;32313;48.722;9.362;2022-10-26T00:54:44;10.73;;;8.97;;
46589;SDS011;32313;48.722;9.362;2022-10-26T00:57:10;10.43;;;8.10;;
46589;SDS011;32313;48.722;9.362;2022-10-26T00:59:38;11.37;;;8.33;;
46589;SDS011;32313;48.722;9.362;2022-10-26T01:02:04;9.93;;;7.83;;
46589;SDS011;32313;48.722;9.362;2022-10-26T01:04:29;9.83;;;7.63;;
46589;SDS011;32313;48.722;9.362;2022-10-26T01:06:56;10.13;;;7.90;;
46589;SDS011;32313;48.722;9.362;2022-10-26T01:09:23;9.23;;;8.23;;
46589;SDS011;32313;48.722;9.362;2022-10-26T01:11:49;10.00;;;8.50;;
46589;SDS011;32313;48.722;9.362;2022-10-26T01:14:15;9.27;;;7.87;;
46589;SDS011;32313;48.722;9.362;2022-10-26T01:22:21;11.00;;;8.47;;
46589;SDS011;32313;48.722;9.362;2022-10-26T01:27:28;9.23;;;7.47;;
46589;SDS011;32313;48.722;9.362;2022-10-26T01:35:59;10.40;;;8.30;;
46589;SDS011;32313;48.722;9.362;2022-10-26T01:39:07;10.90;;;7.80;;
46589;SDS011;32313;48.722;9.362;2022-10-26T01:41:47;11.10;;;8.37;;
46589;SDS011;32313;48.722;9.362;2022-10-26T01:44:36;9.53;;;7.80;;
46589;SDS011;32313;48.722;9.362;2022-10-26T01:47:07;10.23;;;8.23;;
46589;SDS011;32313;48.722;9.362;2022-10-26T01:49:55;10.77;;;8.20;;
46589;SDS011;32313;48.722;9.362;2022-10-26T01:52:24;13.63;;;8.60;;
46589;SDS011;32313;48.722;9.362;2022-10-26T01:54:50;9.90;;;8.07;;
46589;SDS011;32313;48.722;9.362;2022-10-26T01:57:16;11.67;;;9.63;;
46589;SDS011;32313;48.722;9.362;2022-10-26T01:59:56;11.73;;;9.33;;
46589;SDS011;32313;48.722;9.362;2022-10-26T02:08:48;12.90;;;8.53;;
46589;SDS011;32313;48.722;9.362;2022-10-26T02:11:29;10.80;;;7.60;;
46589;SDS011;32313;48.722;9.362;2022-10-26T02:16:51;9.67;;;8.53;;
46589;SDS011;32313;48.722;9.362;2022-10-26T02:22:29;10.17;;;8.60;;
46589;SDS011;32313;48.722;9.362;2022-10-26T02:25:00;12.00;;;8.50;;
46589;SDS011;32313;48.722;9.362;2022-10-26T02:27:31;11.00;;;8.23;;
46589;SDS011;32313;48.722;9.362;2022-10-26T02:30:02;15.17;;;9.10;;
46589;SDS011;32313;48.722;9.362;2022-10-26T02:32:30;16.83;;;9.20;;
46589;SDS011;32313;48.722;9.362;2022-10-26T02:34:59;10.43;;;8.27;;
46589;SDS011;32313;48.722;9.362;2022-10-26T02:37:27;13.60;;;8.77;;
46589;SDS011;32313;48.722;9.362;2022-10-26T02:39:54;9.83;;;8.70;;
46589;SDS011;32313;48.722;9.362;2022-10-26T02:42:24;14.50;;;9.13;;
46589;SDS011;32313;48.722;9.362;2022-10-26T02:44:55;11.50;;;8.50;;
46589;SDS011;32313;48.722;9.362;2022-10-26T02:47:27;10.77;;;9.50;;
46589;SDS011;32313;48.722;9.362;2022-10-26T02:49:53;12.67;;;9.13;;
46589;SDS011;32313;48.722;9.362;2022-10-26T02:52:23;12.87;;;8.27;;
46589;SDS011;32313;48.722;9.362;2022-10-26T02:55:27;11.63;;;9.30;;
46589;SDS011;32313;48.722;9.362;2022-10-26T02:58:00;11.00;;;8.23;;
46589;SDS011;32313;48.722;9.362;2022-10-26T03:00:30;10.87;;;9.00;;
46589;SDS011;32313;48.722;9.362;2022-10-26T03:02:57;12.30;;;8.80;;
46589;SDS011;32313;48.722;9.362;2022-10-26T03:07:53;8.80;;;7.90;;
46589;SDS011;32313;48.722;9.362;2022-10-26T03:10:20;9.17;;;8.23;;
46589;SDS011;32313;48.722;9.362;2022-10-26T03:12:46;10.40;;;8.20;;
46589;SDS011;32313;48.722;9.362;2022-10-26T03:15:15;11.93;;;9.27;;
46589;SDS011;32313;48.722;9.362;2022-10-26T03:17:41;10.43;;;8.40;;
46589;SDS011;32313;48.722;9.362;2022-10-26T03:20:07;13.20;;;8.23;;
46589;SDS011;32313;48.722;9.362;2022-10-26T03:22:33;14.30;;;8.97;;
46589;SDS011;32313;48.722;9.362;2022-10-26T03:25:07;13.93;;;9.10;;
46589;SDS011;32313;48.722;9.362;2022-10-26T03:27:33;12.43;;;9.10;;
46589;SDS011;32313;48.722;9.362;2022-10-26T03:29:59;13.23;;;9.13;;
46589;SDS011;32313;48.722;9.362;2022-10-26T03:32:24;10.90;;;8.53;;
46589;SDS011;32313;48.722;9.362;2022-10-26T03:34:50;13.83;;;8.83;;
46589;SDS011;32313;48.722;9.362;2022-10-26T03:37:16;10.43;;;9.30;;
46589;SDS011;32313;48.722;9.362;2022-10-26T03:39:41;10.53;;;9.53;;
46589;SDS011;32313;48.722;9.362;2022-10-26T03:42:07;11.93;;;9.27;;
46589;SDS011;32313;48.722;9.362;2022-10-26T03:44:32;9.73;;;8.53;;
46589;SDS011;32313;48.722;9.362;2022-10-26T03:46:58;10.30;;;8.53;;
46589;SDS011;32313;48.722;9.362;2022-10-26T03:49:24;13.13;;;9.20;;
46589;SDS011;32313;48.722;9.362;2022-10-26T03:51:49;12.83;;;8.77;;
46589;SDS011;32313;48.722;9.362;2022-10-26T03:54:15;12.10;;;8.17;;
46589;SDS011;32313;48.722;9.362;2022-10-26T03:56:41;8.60;;;7.70;;
46589;SDS011;32313;48.722;9.362;2022-10-26T03:59:06;13.87;;;9.73;;
46589;SDS011;32313;48.722;9.362;2022-10-26T04:01:32;9.70;;;8.73;;
46589;SDS011;32313;48.722;9.362;2022-10-26T04:03:57;11.13;;;8.50;;
46589;SDS011;32313;48.722;9.362;2022-10-26T04:06:24;14.50;;;8.73;;
46589;SDS011;32313;48.722;9.362;2022-10-26T04:08:50;8.83;;;7.93;;
46589;SDS011;32313;48.722;9.362;2022-10-26T04:11:17;11.60;;;7.77;;
46589;SDS011;32313;48.722;9.362;2022-10-26T04:13:43;10.00;;;7.83;;
46589;SDS011;32313;48.722;9.362;2022-10-26T04:16:08;10.50;;;7.83;;
46589;SDS011;32313;48.722;9.362;2022-10-26T04:18:34;12.50;;;8.07;;
46589;SDS011;32313;48.722;9.362;2022-10-26T04:21:00;12.53;;;8.27;;
46589;SDS011;32313;48.722;9.362;2022-10-26T04:23:26;9.80;;;8.20;;
46589;SDS011;32313;48.722;9.362;2022-10-26T04:25:52;14.13;;;8.67;;
46589;SDS011;32313;48.722;9.362;2022-10-26T04:28:17;8.43;;;7.63;;
46589;SDS011;32313;48.722;9.362;2022-10-26T04:30:43;14.23;;;8.43;;
46589;SDS011;32313;48.722;9.362;2022-10-26T04:33:09;13.90;;;8.43;;
46589;SDS011;32313;48.722;9.362;2022-10-26T04:35:35;13.13;;;9.50;;
46589;SDS011;32313;48.722;9.362;2022-10-26T04:38:01;12.47;;;9.40;;
46589;SDS011;32313;48.722;9.362;2022-10-26T04:40:29;14.43;;;9.93;;
46589;SDS011;32313;48.722;9.362;2022-10-26T04:42:55;11.30;;;8.93;;
46589;SDS011;32313;48.722;9.362;2022-10-26T04:45:21;14.03;;;9.47;;
46589;SDS011;32313;48.722;9.362;2022-10-26T04:47:47;12.30;;;10.10;;
46589;SDS011;32313;48.722;9.362;2022-10-26T04:50:22;10.87;;;9.77;;
46589;SDS011;32313;48.722;9.362;2022-10-26T04:52:51;12.37;;;9.87;;
46589;SDS011;32313;48.722;9.362;2022-10-26T04:55:17;13.53;;;10.00;;
46589;SDS011;32313;48.722;9.362;2022-10-26T04:57:43;11.50;;;9.23;;
46589;SDS011;32313;48.722;9.362;2022-10-26T05:00:09;11.80;;;9.53;;
46589;SDS011;32313;48.722;9.362;2022-10-26T05:02:35;13.03;;;10.00;;
46589;SDS011;32313;48.722;9.362;2022-10-26T05:05:01;12.57;;;9.80;;
46589;SDS011;32313;48.722;9.362;2022-10-26T05:07:27;11.23;;;9.47;;
46589;SDS011;32313;48.722;9.362;2022-10-26T05:09:52;13.50;;;9.70;;
46589;SDS011;32313;48.722;9.362;2022-10-26T05:12:18;14.93;;;10.27;;
46589;SDS011;32313;48.722;9.362;2022-10-26T05:14:44;13.43;;;10.20;;
46589;SDS011;32313;48.722;9.362;2022-10-26T05:17:09;11.17;;;10.07;;
46589;SDS011;32313;48.722;9.362;2022-10-26T05:19:35;13.60;;;10.47;;
46589;SDS011;32313;48.722;9.362;2022-10-26T05:22:01;16.93;;;11.57;;
46589;SDS011;32313;48.722;9.362;2022-10-26T05:24:26;12.30;;;10.77;;
46589;SDS011;32313;48.722;9.362;2022-10-26T05:26:52;11.40;;;10.30;;
46589;SDS011;32313;48.722;9.362;2022-10-26T05:29:18;13.83;;;11.13;;
46589;SDS011;32313;48.722;9.362;2022-10-26T05:31:43;13.73;;;11.00;;
46589;SDS011;32313;48.722;9.362;2022-10-26T05:34:09;13.37;;;9.70;;
46589;SDS011;32313;48.722;9.362;2022-10-26T05:36:34;15.63;;;12.67;;
46589;SDS011;32313;48.722;9.362;2022-10-26T05:39:00;21.93;;;15.43;;
46589;SDS011;32313;48.722;9.362;2022-10-26T05:41:26;25.27;;;16.07;;
46589;SDS011;32313;48.722;9.362;2022-10-26T05:43:51;18.50;;;15.27;;
46589;SDS011;32313;48.722;9.362;2022-10-26T05:46:17;18.10;;;14.20;;
46589;SDS011;32313;48.722;9.362;2022-10-26T05:48:42;18.93;;;13.50;;
46589;SDS011;32313;48.722;9.362;2022-10-26T05:51:08;18.63;;;14.53;;
46589;SDS011;32313;48.722;9.362;2022-10-26T05:53:36;18.40;;;12.67;;
46589;SDS011;32313;48.722;9.362;2022-10-26T05:56:02;17.00;;;12.57;;
46589;SDS011;32313;48.722;9.362;2022-10-26T05:58:43;18.53;;;12.73;;
46589;SDS011;32313;48.722;9.362;2022-10-26T06:06:10;18.00;;;12.50;;
46589;SDS011;32313;48.722;9.362;2022-10-26T06:08:37;14.87;;;12.40;;
46589;SDS011;32313;48.722;9.362;2022-10-26T06:11:03;15.47;;;13.50;;
46589;SDS011;32313;48.722;9.362;2022-10-26T06:13:29;18.27;;;13.60;;
46589;SDS011;32313;48.722;9.362;2022-10-26T06:16:20;18.83;;;12.60;;
46589;SDS011;32313;48.722;9.362;2022-10-26T06:19:05;19.23;;;13.13;;
46589;SDS011;32313;48.722;9.362;2022-10-26T06:22:07;20.87;;;13.47;;
46589;SDS011;32313;48.722;9.362;2022-10-26T06:24:42;14.83;;;13.20;;
46589;SDS011;32313;48.722;9.362;2022-10-26T06:27:22;19.47;;;14.33;;
46589;SDS011;32313;48.722;9.362;2022-10-26T06:30:04;15.40;;;13.30;;
46589;SDS011;32313;48.722;9.362;2022-10-26T06:32:34;21.20;;;12.37;;
46589;SDS011;32313;48.722;9.362;2022-10-26T06:37:52;14.83;;;13.33;;
46589;SDS011;32313;48.722;9.362;2022-10-26T06:40:19;21.40;;;15.70;;
46589;SDS011;32313;48.722;9.362;2022-10-26T06:42:46;19.40;;;14.43;;
46589;SDS011;32313;48.722;9.362;2022-10-26T06:45:13;19.97;;;13.57;;
46589;SDS011;32313;48.722;9.362;2022-10-26T06:53:05;20.83;;;12.30;;
46589;SDS011;32313;48.722;9.362;2022-10-26T06:55:44;19.83;;;13.13;;
46589;SDS011;32313;48.722;9.362;2022-10-26T06:58:16;18.70;;;11.83;;
46589;SDS011;32313;48.722;9.362;2022-10-26T07:00:47;18.83;;;12.37;;
46589;SDS011;32313;48.722;9.362;2022-10-26T07:03:15;20.87;;;12.33;;
46589;SDS011;32313;48.722;9.362;2022-10-26T07:05:42;17.47;;;11.70;;
46589;SDS011;32313;48.722;9.362;2022-10-26T07:08:08;16.10;;;11.07;;
46589;SDS011;32313;48.722;9.362;2022-10-26T07:10:34;14.30;;;11.23;;
46589;SDS011;32313;48.722;9.362;2022-10-26T07:13:03;13.77;;;11.00;;
46589;SDS011;32313;48.722;9.362;2022-10-26T07:15:30;15.87;;;11.67;;
46589;SDS011;32313;48.722;9.362;2022-10-26T07:17:56;13.67;;;11.50;;
46589;SDS011;32313;48.722;9.362;2022-10-26T07:20:22;18.20;;;12.57;;
46589;SDS011;32313;48.722;9.362;2022-10-26T07:22:51;14.53;;;10.93;;
46589;SDS011;32313;48.722;9.362;2022-10-26T07:25:18;15.83;;;11.10;;
46589;SDS011;32313;48.722;9.362;2022-10-26T07:27:44;16.83;;;12.33;;
46589;SDS011;32313;48.722;9.362;2022-10-26T07:30:10;15.93;;;12.20;;
46589;SDS011;32313;48.722;9.362;2022-10-26T07:32:36;18.77;;;13.57;;
46589;SDS011;32313;48.722;9.362;2022-10-26T07:35:02;17.20;;;12.10;;
46589;SDS011;32313;48.722;9.362;2022-10-26T07:37:27;16.67;;;12.70;;
46589;SDS011;32313;48.722;9.362;2022-10-26T07:39:53;20.57;;;13.20;;
46589;SDS011;32313;48.722;9.362;2022-10-26T07:42:19;21.53;;;13.43;;
46589;SDS011;32313;48.722;9.362;2022-10-26T07:44:44;15.50;;;11.57;;
46589;SDS011;32313;48.722;9.362;2022-10-26T07:47:10;16.97;;;12.30;;
46589;SDS011;32313;48.722;9.362;2022-10-26T07:49:36;16.97;;;11.80;;
46589;SDS011;32313;48.722;9.362;2022-10-26T07:52:02;19.47;;;11.80;;
46589;SDS011;32313;48.722;9.362;2022-10-26T07:54:27;18.40;;;12.43;;
46589;SDS011;32313;48.722;9.362;2022-10-26T07:56:53;16.80;;;10.93;;
46589;SDS011;32313;48.722;9.362;2022-10-26T07:59:19;19.93;;;15.80;;
46589;SDS011;32313;48.722;9.362;2022-10-26T08:01:44;21.00;;;15.30;;
46589;SDS011;32313;48.722;9.362;2022-10-26T08:04:10;17.07;;;14.17;;
46589;SDS011;32313;48.722;9.362;2022-10-26T08:06:36;21.10;;;15.67;;
46589;SDS011;32313;48.722;9.362;2022-10-26T08:09:02;20.30;;;16.70;;
46589;SDS011;32313;48.722;9.362;2022-10-26T08:11:27;21.13;;;16.13;;
46589;SDS011;32313;48.722;9.362;2022-10-26T08:13:53;19.27;;;16.00;;
46589;SDS011;32313;48.722;9.362;2022-10-26T08:16:19;16.73;;;14.93;;
46589;SDS011;32313;48.722;9.362;2022-10-26T08:18:47;19.93;;;14.77;;
46589;SDS011;32313;48.722;9.362;2022-10-26T08:21:13;18.23;;;15.03;;
46589;SDS011;32313;48.722;9.362;2022-10-26T08:23:39;21.70;;;16.03;;
46589;SDS011;32313;48.722;9.362;2022-10-26T08:26:05;19.83;;;13.67;;
46589;SDS011;32313;48.722;9.362;2022-10-26T08:28:32;20.37;;;13.27;;
46589;SDS011;32313;48.722;9.362;2022-10-26T08:30:57;17.27;;;13.33;;
46589;SDS011;32313;48.722;9.362;2022-10-26T08:33:23;17.43;;;12.53;;
46589;SDS011;32313;48.722;9.362;2022-10-26T08:35:59;18.03;;;13.43;;
46589;SDS011;32313;48.722;9.362;2022-10-26T08:38:26;13.27;;;11.53;;
46589;SDS011;32313;48.722;9.362;2022-10-26T08:40:52;17.50;;;11.27;;
46589;SDS011;32313;48.722;9.362;2022-10-26T08:46:01;14.70;;;11.40;;
46589;SDS011;32313;48.722;9.362;2022-10-26T08:48:34;12.90;;;10.47;;
46589;SDS011;32313;48.722;9.362;2022-10-26T08:51:08;17.33;;;10.80;;
46589;SDS011;32313;48.722;9.362;2022-10-26T08:54:01;14.97;;;10.40;;
46589;SDS011;32313;48.722;9.362;2022-10-26T08:56:45;18.47;;;10.10;;
46589;SDS011;32313;48.722;9.362;2022-10-26T08:59:28;14.00;;;11.13;;
46589;SDS011;32313;48.722;9.362;2022-10-26T09:01:58;12.43;;;10.23;;
46589;SDS011;32313;48.722;9.362;2022-10-26T09:04:26;12.87;;;9.57;;
46589;SDS011;32313;48.722;9.362;2022-10-26T09:07:08;12.27;;;9.97;;
46589;SDS011;32313;48.722;9.362;2022-10-26T09:12:58;13.70;;;11.07;;
46589;SDS011;32313;48.722;9.362;2022-10-26T09:15:58;12.40;;;10.27;;
46589;SDS011;32313;48.722;9.362;2022-10-26T09:18:37;17.30;;;9.63;;
46589;SDS011;32313;48.722;9.362;2022-10-26T09:24:00;15.60;;;10.23;;
46589;SDS011;32313;48.722;9.362;2022-10-26T09:29:42;13.97;;;8.67;;
46589;SDS011;32313;48.722;9.362;2022-10-26T09:32:18;12.57;;;7.33;;
46589;SDS011;32313;48.722;9.362;2022-10-26T09:34:50;14.27;;;6.90;;
46589;SDS011;32313;48.722;9.362;2022-10-26T09:37:23;8.40;;;5.63;;
46589;SDS011;32313;48.722;9.362;2022-10-26T09:43:00;6.70;;;4.67;;
46589;SDS011;32313;48.722;9.362;2022-10-26T09:45:35;6.70;;;4.27;;
46589;SDS011;32313;48.722;9.362;2022-10-26T09:48:10;4.77;;;3.40;;
46589;SDS011;32313;48.722;9.362;2022-10-26T09:50:41;6.83;;;3.53;;
46589;SDS011;32313;48.722;9.362;2022-10-26T09:53:13;6.97;;;3.47;;
46589;SDS011;32313;48.722;9.362;2022-10-26T09:55:44;4.90;;;3.47;;
46589;SDS011;32313;48.722;9.362;2022-10-26T09:58:24;5.03;;;3.13;;
46589;SDS011;32313;48.722;9.362;2022-10-26T10:00:53;6.93;;;2.80;;
46589;SDS011;32313;48.722;9.362;2022-10-26T10:03:20;4.77;;;3.20;;
46589;SDS011;32313;48.722;9.362;2022-10-26T10:05:51;7.03;;;3.33;;
46589;SDS011;32313;48.722;9.362;2022-10-26T10:11:01;4.80;;;3.07;;
46589;SDS011;32313;48.722;9.362;2022-10-26T10:13:32;4.97;;;3.20;;
46589;SDS011;32313;48.722;9.362;2022-10-26T10:16:04;5.37;;;3.27;;
46589;SDS011;32313;48.722;9.362;2022-10-26T10:18:30;6.47;;;3.10;;
46589;SDS011;32313;48.722;9.362;2022-10-26T10:20:57;6.67;;;3.30;;
46589;SDS011;32313;48.722;9.362;2022-10-26T10:23:25;8.63;;;3.80;;
46589;SDS011;32313;48.722;9.362;2022-10-26T10:28:35;8.30;;;3.57;;
46589;SDS011;32313;48.722;9.362;2022-10-26T10:31:05;5.37;;;3.50;;
46589;SDS011;32313;48.722;9.362;2022-10-26T10:33:42;6.90;;;3.70;;
46589;SDS011;32313;48.722;9.362;2022-10-26T10:36:12;5.00;;;3.70;;
46589;SDS011;32313;48.722;9.362;2022-10-26T10:38:44;6.60;;;4.33;;
46589;SDS011;32313;48.722;9.362;2022-10-26T10:41:15;8.23;;;4.23;;
46589;SDS011;32313;48.722;9.362;2022-10-26T10:44:07;5.73;;;3.53;;
46589;SDS011;32313;48.722;9.362;2022-10-26T10:46:58;4.33;;;3.60;;
46589;SDS011;32313;48.722;9.362;2022-10-26T10:49:26;5.17;;;3.70;;
46589;SDS011;32313;48.722;9.362;2022-10-26T10:51:54;5.33;;;3.60;;
46589;SDS011;32313;48.722;9.362;2022-10-26T10:54:31;7.90;;;4.50;;
46589;SDS011;32313;48.722;9.362;2022-10-26T11:02:48;4.77;;;3.50;;
46589;SDS011;32313;48.722;9.362;2022-10-26T11:08:25;8.80;;;3.57;;
46589;SDS011;32313;48.722;9.362;2022-10-26T11:14:05;6.20;;;3.03;;
46589;SDS011;32313;48.722;9.362;2022-10-26T11:22:19;7.10;;;2.60;;
46589;SDS011;32313;48.722;9.362;2022-10-26T11:27:54;6.33;;;3.03;;
46589;SDS011;32313;48.722;9.362;2022-10-26T11:30:24;4.90;;;2.60;;
46589;SDS011;32313;48.722;9.362;2022-10-26T11:40:54;5.10;;;2.27;;
46589;SDS011;32313;48.722;9.362;2022-10-26T11:56:57;4.47;;;2.57;;
46589;SDS011;32313;48.722;9.362;2022-10-26T11:59:25;6.70;;;2.53;;
46589;SDS011;32313;48.722;9.362;2022-10-26T12:01:58;5.77;;;2.40;;
46589;SDS011;32313;48.722;9.362;2022-10-26T12:04:29;6.00;;;2.50;;
46589;SDS011;32313;48.722;9.362;2022-10-26T12:06:59;3.73;;;2.30;;
46589;SDS011;32313;48.722;9.362;2022-10-26T12:09:31;6.00;;;2.13;;
46589;SDS011;32313;48.722;9.362;2022-10-26T12:12:03;6.27;;;2.70;;
46589;SDS011;32313;48.722;9.362;2022-10-26T12:14:48;5.70;;;2.43;;
46589;SDS011;32313;48.722;9.362;2022-10-26T12:22:40;4.33;;;2.33;;
46589;SDS011;32313;48.722;9.362;2022-10-26T12:40:46;4.50;;;2.23;;
46589;SDS011;32313;48.722;9.362;2022-10-26T12:45:38;4.43;;;2.70;;
46589;SDS011;32313;48.722;9.362;2022-10-26T12:48:12;5.70;;;2.60;;
46589;SDS011;32313;48.722;9.362;2022-10-26T12:50:51;5.70;;;2.60;;
46589;SDS011;32313;48.722;9.362;2022-10-26T12:53:17;4.23;;;2.60;;
46589;SDS011;32313;48.722;9.362;2022-10-26T13:04:03;8.30;;;2.83;;
46589;SDS011;32313;48.722;9.362;2022-10-26T13:10:05;7.73;;;2.90;;
46589;SDS011;32313;48.722;9.362;2022-10-26T13:12:53;7.33;;;2.90;;
46589;SDS011;32313;48.722;9.362;2022-10-26T13:20:35;5.87;;;3.03;;
46589;SDS011;32313;48.722;9.362;2022-10-26T13:23:18;7.20;;;3.10;;
46589;SDS011;32313;48.722;9.362;2022-10-26T13:26:03;7.23;;;2.70;;
46589;SDS011;32313;48.722;9.362;2022-10-26T13:31:04;6.63;;;2.77;;
46589;SDS011;32313;48.722;9.362;2022-10-26T13:33:41;5.60;;;2.43;;
46589;SDS011;32313;48.722;9.362;2022-10-26T13:36:17;7.50;;;2.40;;
46589;SDS011;32313;48.722;9.362;2022-10-26T13:38:46;4.43;;;2.20;;
46589;SDS011;32313;48.722;9.362;2022-10-26T13:41:16;6.80;;;2.73;;
46589;SDS011;32313;48.722;9.362;2022-10-26T13:43:52;3.80;;;2.13;;
46589;SDS011;32313;48.722;9.362;2022-10-26T13:46:24;5.00;;;2.10;;
46589;SDS011;32313;48.722;9.362;2022-10-26T13:49:15;7.10;;;2.80;;
46589;SDS011;32313;48.722;9.362;2022-10-26T13:52:00;7.83;;;2.67;;
46589;SDS011;32313;48.722;9.362;2022-10-26T13:54:29;4.83;;;2.20;;
46589;SDS011;32313;48.722;9.362;2022-10-26T13:59:41;6.40;;;2.10;;
46589;SDS011;32313;48.722;9.362;2022-10-26T14:02:16;5.47;;;2.40;;
46589;SDS011;32313;48.722;9.362;2022-10-26T14:04:44;4.07;;;2.08;;
46589;SDS011;32313;48.722;9.362;2022-10-26T14:07:14;4.50;;;2.33;;
46589;SDS011;32313;48.722;9.362;2022-10-26T14:09:50;4.55;;;2.33;;
46589;SDS011;32313;48.722;9.362;2022-10-26T14:12:21;5.03;;;2.33;;
46589;SDS011;32313;48.722;9.362;2022-10-26T14:14:53;5.60;;;2.47;;
46589;SDS011;32313;48.722;9.362;2022-10-26T14:17:26;4.90;;;2.27;;
46589;SDS011;32313;48.722;9.362;2022-10-26T14:19:52;4.50;;;2.23;;
46589;SDS011;32313;48.722;9.362;2022-10-26T14:22:21;6.63;;;2.57;;
46589;SDS011;32313;48.722;9.362;2022-10-26T14:24:52;5.93;;;2.40;;
46589;SDS011;32313;48.722;9.362;2022-10-26T14:27:21;5.00;;;2.50;;
46589;SDS011;32313;48.722;9.362;2022-10-26T14:29:49;4.40;;;2.47;;
46589;SDS011;32313;48.722;9.362;2022-10-26T14:32:27;5.97;;;2.90;;
46589;SDS011;32313;48.722;9.362;2022-10-26T14:34:57;5.10;;;2.43;;
46589;SDS011;32313;48.722;9.362;2022-10-26T14:37:43;4.73;;;2.23;;
46589;SDS011;32313;48.722;9.362;2022-10-26T14:40:18;7.23;;;2.50;;
46589;SDS011;32313;48.722;9.362;2022-10-26T14:42:46;6.17;;;2.43;;
46589;SDS011;32313;48.722;9.362;2022-10-26T14:45:28;9.77;;;3.00;;
46589;SDS011;32313;48.722;9.362;2022-10-26T14:47:56;7.40;;;2.77;;
46589;SDS011;32313;48.722;9.362;2022-10-26T14:50:23;6.53;;;2.53;;
46589;SDS011;32313;48.722;9.362;2022-10-26T14:52:55;5.97;;;2.73;;
46589;SDS011;32313;48.722;9.362;2022-10-26T14:55:23;6.77;;;2.80;;
46589;SDS011;32313;48.722;9.362;2022-10-26T14:57:51;7.23;;;2.60;;
46589;SDS011;32313;48.722;9.362;2022-10-26T15:00:24;4.43;;;2.10;;
46589;SDS011;32313;48.722;9.362;2022-10-26T15:02:53;6.00;;;2.93;;
46589;SDS011;32313;48.722;9.362;2022-10-26T15:07:46;6.50;;;2.40;;
46589;SDS011;32313;48.722;9.362;2022-10-26T15:15:56;4.47;;;2.70;;
46589;SDS011;32313;48.722;9.362;2022-10-26T15:18:34;6.60;;;2.90;;
46589;SDS011;32313;48.722;9.362;2022-10-26T15:21:01;4.23;;;2.40;;
46589;SDS011;32313;48.722;9.362;2022-10-26T15:23:27;3.47;;;2.60;;
46589;SDS011;32313;48.722;9.362;2022-10-26T15:25:55;6.23;;;2.90;;
46589;SDS011;32313;48.722;9.362;2022-10-26T15:33:39;6.40;;;2.73;;
46589;SDS011;32313;48.722;9.362;2022-10-26T15:38:32;7.10;;;3.43;;
46589;SDS011;32313;48.722;9.362;2022-10-26T15:41:01;7.63;;;3.17;;
46589;SDS011;32313;48.722;9.362;2022-10-26T15:43:27;7.77;;;3.63;;
46589;SDS011;32313;48.722;9.362;2022-10-26T15:45:53;8.67;;;2.93;;
46589;SDS011;32313;48.722;9.362;2022-10-26T15:48:27;7.03;;;3.50;;
46589;SDS011;32313;48.722;9.362;2022-10-26T15:50:56;8.40;;;3.30;;
46589;SDS011;32313;48.722;9.362;2022-10-26T15:53:23;13.87;;;3.77;;
46589;SDS011;32313;48.722;9.362;2022-10-26T15:55:53;7.83;;;3.63;;
46589;SDS011;32313;48.722;9.362;2022-10-26T15:58:21;12.23;;;4.40;;
46589;SDS011;32313;48.722;9.362;2022-10-26T16:00:47;8.63;;;3.93;;
46589;SDS011;32313;48.722;9.362;2022-10-26T16:03:15;12.70;;;3.73;;
46589;SDS011;32313;48.722;9.362;2022-10-26T16:05:44;12.97;;;4.10;;
46589;SDS011;32313;48.722;9.362;2022-10-26T16:08:14;11.00;;;4.07;;
46589;SDS011;32313;48.722;9.362;2022-10-26T16:10:41;10.50;;;4.03;;
46589;SDS011;32313;48.722;9.362;2022-10-26T16:13:13;9.53;;;4.10;;
46589;SDS011;32313;48.722;9.362;2022-10-26T16:15:39;9.30;;;4.27;;
46589;SDS011;32313;48.722;9.362;2022-10-26T16:18:06;7.83;;;3.77;;
46589;SDS011;32313;48.722;9.362;2022-10-26T16:20:32;7.50;;;4.00;;
46589;SDS011;32313;48.722;9.362;2022-10-26T16:22:58;7.13;;;4.00;;
46589;SDS011;32313;48.722;9.362;2022-10-26T16:25:30;6.93;;;3.67;;
46589;SDS011;32313;48.722;9.362;2022-10-26T16:27:57;8.20;;;4.77;;
46589;SDS011;32313;48.722;9.362;2022-10-26T16:30:22;11.67;;;4.40;;
46589;SDS011;32313;48.722;9.362;2022-10-26T16:32:48;7.63;;;4.43;;
46589;SDS011;32313;48.722;9.362;2022-10-26T16:35:14;10.87;;;5.53;;
46589;SDS011;32313;48.722;9.362;2022-10-26T16:37:40;7.87;;;4.37;;
46589;SDS011;32313;48.722;9.362;2022-10-26T16:40:06;9.17;;;4.73;;
46589;SDS011;32313;48.722;9.362;2022-10-26T16:42:33;8.73;;;4.37;;
46589;SDS011;32313;48.722;9.362;2022-10-26T16:44:59;8.93;;;4.80;;
46589;SDS011;32313;48.722;9.362;2022-10-26T16:47:25;10.47;;;5.30;;
46589;SDS011;32313;48.722;9.362;2022-10-26T16:49:51;10.93;;;5.03;;
46589;SDS011;32313;48.722;9.362;2022-10-26T16:52:17;9.93;;;4.93;;
46589;SDS011;32313;48.722;9.362;2022-10-26T16:54:43;10.57;;;5.00;;
46589;SDS011;32313;48.722;9.362;2022-10-26T16:57:08;9.10;;;5.37;;
46589;SDS011;32313;48.722;9.362;2022-10-26T16:59:35;9.53;;;4.80;;
46589;SDS011;32313;48.722;9.362;2022-10-26T17:02:00;10.43;;;5.63;;
46589;SDS011;32313;48.722;9.362;2022-10-26T17:04:26;10.73;;;5.70;;
46589;SDS011;32313;48.722;9.362;2022-10-26T17:06:52;14.87;;;4.80;;
46589;SDS011;32313;48.722;9.362;2022-10-26T17:09:17;11.63;;;4.70;;
46589;SDS011;32313;48.722;9.362;2022-10-26T17:11:43;10.23;;;4.83;;
46589;SDS011;32313;48.722;9.362;2022-10-26T17:14:09;8.30;;;4.73;;
46589;SDS011;32313;48.722;9.362;2022-10-26T17:16:34;10.37;;;4.97;;
46589;SDS011;32313;48.722;9.362;2022-10-26T17:19:00;8.87;;;5.10;;
46589;SDS011;32313;48.722;9.362;2022-10-26T17:21:27;10.30;;;5.67;;
46589;SDS011;32313;48.722;9.362;2022-10-26T17:23:57;9.73;;;5.73;;
46589;SDS011;32313;48.722;9.362;2022-10-26T17:26:23;9.40;;;5.13;;
46589;SDS011;32313;48.722;9.362;2022-10-26T17:28:55;11.50;;;5.60;;
46589;SDS011;32313;48.722;9.362;2022-10-26T17:31:21;13.53;;;5.80;;
46589;SDS011;32313;48.722;9.362;2022-10-26T17:33:48;7.23;;;5.43;;
46589;SDS011;32313;48.722;9.362;2022-10-26T17:36:15;12.07;;;6.10;;
46589;SDS011;32313;48.722;9.362;2022-10-26T17:38:47;13.93;;;5.40;;